sensor_id;sensor_type;location;lat;lon;timestamp;P1;durP1;ratioP1;P2;durP2;ratioP2
35084;SDS011;21267;51.032;6.998;2023-02-04T07:33:40;23.10;;;5.30;;
35084;SDS011;21267;51.032;6.998;2023-02-04T07:36:43;25.23;;;5.78;;
35084;SDS011;21267;51.032;6.998;2023-02-04T07:40:06;22.92;;;5.30;;
35084;SDS011;21267;51.032;6.998;2023-02-04T07:42:54;24.25;;;4.90;;
35084;SDS011;21267;51.032;6.998;2023-02-04T07:45:41;16.17;;;4.03;;
35084;SDS011;21267;51.032;6.998;2023-02-04T07:48:13;25.88;;;5.85;;
35084;SDS011;21267;51.032;6.998;2023-02-04T08:12:41;21.42;;;4.95;;
35084;SDS011;21267;51.032;6.998;2023-02-04T08:15:17;21.65;;;4.70;;
35084;SDS011;21267;51.032;6.998;2023-02-04T08:25:15;23.77;;;6.05;;
35084;SDS011;21267;51.032;6.998;2023-02-04T08:28:22;21.63;;;5.85;;
35084;SDS011;21267;51.032;6.998;2023-02-04T08:31:12;21.42;;;4.53;;
35084;SDS011;21267;51.032;6.998;2023-02-04T08:37:00;20.42;;;5.53;;
35084;SDS011;21267;51.032;6.998;2023-02-04T08:40:01;25.33;;;6.13;;
35084;SDS011;21267;51.032;6.998;2023-02-04T08:45:56;24.23;;;5.28;;
35084;SDS011;21267;51.032;6.998;2023-02-04T08:48:23;26.52;;;5.95;;
35084;SDS011;21267;51.032;6.998;2023-02-04T08:50:54;28.33;;;7.05;;
35084;SDS011;21267;51.032;6.998;2023-02-04T08:53:21;26.80;;;6.82;;
35084;SDS011;21267;51.032;6.998;2023-02-04T08:55:53;20.00;;;5.85;;
35084;SDS011;21267;51.032;6.998;2023-02-04T08:58:19;21.13;;;5.70;;
35084;SDS011;21267;51.032;6.998;2023-02-04T09:00:46;25.33;;;6.38;;
35084;SDS011;21267;51.032;6.998;2023-02-04T09:03:13;15.67;;;5.40;;
35084;SDS011;21267;51.032;6.998;2023-02-04T09:05:56;18.58;;;5.05;;
35084;SDS011;21267;51.032;6.998;2023-02-04T09:08:23;22.88;;;5.72;;
35084;SDS011;21267;51.032;6.998;2023-02-04T09:10:56;24.58;;;6.88;;
35084;SDS011;21267;51.032;6.998;2023-02-04T09:13:39;28.08;;;7.45;;
35084;SDS011;21267;51.032;6.998;2023-02-04T09:16:15;21.52;;;6.43;;
35084;SDS011;21267;51.032;6.998;2023-02-04T09:18:48;27.25;;;7.75;;
35084;SDS011;21267;51.032;6.998;2023-02-04T09:21:20;31.08;;;6.70;;
35084;SDS011;21267;51.032;6.998;2023-02-04T09:24:00;26.95;;;7.63;;
35084;SDS011;21267;51.032;6.998;2023-02-04T09:26:27;31.20;;;7.03;;
35084;SDS011;21267;51.032;6.998;2023-02-04T09:29:00;29.88;;;6.63;;
35084;SDS011;21267;51.032;6.998;2023-02-04T09:31:28;23.13;;;7.00;;
35084;SDS011;21267;51.032;6.998;2023-02-04T09:33:58;24.15;;;7.40;;
35084;SDS011;21267;51.032;6.998;2023-02-04T09:42:14;25.25;;;6.93;;
35084;SDS011;21267;51.032;6.998;2023-02-04T09:48:05;28.70;;;6.77;;
35084;SDS011;21267;51.032;6.998;2023-02-04T09:54:39;31.92;;;7.78;;
35084;SDS011;21267;51.032;6.998;2023-02-04T09:57:17;31.57;;;8.03;;
35084;SDS011;21267;51.032;6.998;2023-02-04T11:12:40;30.50;;;11.15;;
35084;SDS011;21267;51.032;6.998;2023-02-04T11:18:06;38.53;;;13.75;;
35084;SDS011;21267;51.032;6.998;2023-02-04T11:20:54;31.17;;;12.15;;
35084;SDS011;21267;51.032;6.998;2023-02-04T11:23:29;35.55;;;13.13;;
35084;SDS011;21267;51.032;6.998;2023-02-04T11:26:05;28.00;;;12.88;;
35084;SDS011;21267;51.032;6.998;2023-02-04T11:39:43;32.88;;;14.02;;
35084;SDS011;21267;51.032;6.998;2023-02-04T11:42:15;32.50;;;13.07;;
35084;SDS011;21267;51.032;6.998;2023-02-04T11:44:52;40.45;;;14.15;;
35084;SDS011;21267;51.032;6.998;2023-02-04T11:47:21;34.38;;;12.85;;
35084;SDS011;21267;51.032;6.998;2023-02-04T11:49:55;36.42;;;16.20;;
35084;SDS011;21267;51.032;6.998;2023-02-04T11:52:24;35.92;;;13.68;;
35084;SDS011;21267;51.032;6.998;2023-02-04T11:54:53;36.20;;;13.43;;
35084;SDS011;21267;51.032;6.998;2023-02-04T11:57:21;38.90;;;15.32;;
35084;SDS011;21267;51.032;6.998;2023-02-04T11:59:49;35.45;;;14.13;;
35084;SDS011;21267;51.032;6.998;2023-02-04T12:02:20;36.40;;;13.82;;
35084;SDS011;21267;51.032;6.998;2023-02-04T12:05:07;37.88;;;13.23;;
35084;SDS011;21267;51.032;6.998;2023-02-04T12:07:37;37.05;;;13.23;;
35084;SDS011;21267;51.032;6.998;2023-02-04T12:10:23;45.10;;;13.65;;
35084;SDS011;21267;51.032;6.998;2023-02-04T12:12:53;30.95;;;12.32;;
35084;SDS011;21267;51.032;6.998;2023-02-04T12:15:32;42.67;;;14.07;;
35084;SDS011;21267;51.032;6.998;2023-02-04T12:20:29;33.15;;;14.27;;
35084;SDS011;21267;51.032;6.998;2023-02-04T12:22:56;41.30;;;15.10;;
35084;SDS011;21267;51.032;6.998;2023-02-04T12:25:23;35.10;;;13.80;;
35084;SDS011;21267;51.032;6.998;2023-02-04T12:27:52;39.22;;;13.60;;
35084;SDS011;21267;51.032;6.998;2023-02-04T12:30:21;37.28;;;15.10;;
35084;SDS011;21267;51.032;6.998;2023-02-04T12:35:15;47.47;;;19.25;;
35084;SDS011;21267;51.032;6.998;2023-02-04T12:37:42;38.83;;;16.97;;
35084;SDS011;21267;51.032;6.998;2023-02-04T12:40:15;36.13;;;15.35;;
35084;SDS011;21267;51.032;6.998;2023-02-04T12:42:43;34.92;;;14.10;;
35084;SDS011;21267;51.032;6.998;2023-02-04T12:45:11;30.88;;;14.10;;
35084;SDS011;21267;51.032;6.998;2023-02-04T12:47:39;33.28;;;13.90;;
35084;SDS011;21267;51.032;6.998;2023-02-04T12:50:06;35.20;;;13.70;;
35084;SDS011;21267;51.032;6.998;2023-02-04T12:52:33;36.38;;;14.77;;
35084;SDS011;21267;51.032;6.998;2023-02-04T12:55:02;34.55;;;14.75;;
35084;SDS011;21267;51.032;6.998;2023-02-04T12:57:32;38.25;;;13.23;;
35084;SDS011;21267;51.032;6.998;2023-02-04T12:59:59;34.27;;;13.10;;
35084;SDS011;21267;51.032;6.998;2023-02-04T13:02:27;29.10;;;13.27;;
35084;SDS011;21267;51.032;6.998;2023-02-04T13:04:54;33.40;;;13.20;;
35084;SDS011;21267;51.032;6.998;2023-02-04T13:07:21;30.90;;;13.25;;
35084;SDS011;21267;51.032;6.998;2023-02-04T13:09:48;37.73;;;14.10;;
35084;SDS011;21267;51.032;6.998;2023-02-04T13:12:15;32.88;;;11.40;;
35084;SDS011;21267;51.032;6.998;2023-02-04T13:14:42;30.77;;;11.27;;
35084;SDS011;21267;51.032;6.998;2023-02-04T13:17:09;34.03;;;12.70;;
35084;SDS011;21267;51.032;6.998;2023-02-04T13:19:36;33.78;;;13.35;;
35084;SDS011;21267;51.032;6.998;2023-02-04T13:22:02;33.47;;;13.63;;
35084;SDS011;21267;51.032;6.998;2023-02-04T13:24:30;26.17;;;10.80;;
35084;SDS011;21267;51.032;6.998;2023-02-04T13:26:57;25.70;;;10.43;;
35084;SDS011;21267;51.032;6.998;2023-02-04T13:29:24;29.48;;;11.20;;
35084;SDS011;21267;51.032;6.998;2023-02-04T13:31:50;33.67;;;12.32;;
35084;SDS011;21267;51.032;6.998;2023-02-04T13:34:17;29.60;;;11.07;;
35084;SDS011;21267;51.032;6.998;2023-02-04T13:36:44;25.92;;;10.32;;
35084;SDS011;21267;51.032;6.998;2023-02-04T13:39:11;24.40;;;9.98;;
35084;SDS011;21267;51.032;6.998;2023-02-04T13:41:37;22.73;;;10.10;;
35084;SDS011;21267;51.032;6.998;2023-02-04T13:44:04;23.27;;;10.15;;
35084;SDS011;21267;51.032;6.998;2023-02-04T13:46:31;22.40;;;10.80;;
35084;SDS011;21267;51.032;6.998;2023-02-04T13:48:58;24.20;;;9.85;;
35084;SDS011;21267;51.032;6.998;2023-02-04T13:51:25;18.70;;;10.47;;
35084;SDS011;21267;51.032;6.998;2023-02-04T13:53:52;22.60;;;9.43;;
35084;SDS011;21267;51.032;6.998;2023-02-04T13:56:18;22.75;;;9.40;;
35084;SDS011;21267;51.032;6.998;2023-02-04T13:58:45;18.05;;;9.02;;
35084;SDS011;21267;51.032;6.998;2023-02-04T14:01:13;24.27;;;8.73;;
35084;SDS011;21267;51.032;6.998;2023-02-04T14:03:40;25.38;;;10.07;;
35084;SDS011;21267;51.032;6.998;2023-02-04T14:06:08;27.45;;;9.75;;
35084;SDS011;21267;51.032;6.998;2023-02-04T14:08:34;26.83;;;9.60;;
35084;SDS011;21267;51.032;6.998;2023-02-04T14:11:01;19.58;;;9.13;;
35084;SDS011;21267;51.032;6.998;2023-02-04T14:13:28;22.63;;;10.27;;
35084;SDS011;21267;51.032;6.998;2023-02-04T14:15:54;24.20;;;10.32;;
35084;SDS011;21267;51.032;6.998;2023-02-04T14:18:21;26.85;;;11.65;;
35084;SDS011;21267;51.032;6.998;2023-02-04T14:23:29;23.85;;;9.82;;
35084;SDS011;21267;51.032;6.998;2023-02-04T14:25:56;25.80;;;9.95;;
35084;SDS011;21267;51.032;6.998;2023-02-04T14:28:36;27.25;;;10.73;;
35084;SDS011;21267;51.032;6.998;2023-02-04T14:31:04;26.95;;;10.88;;
35084;SDS011;21267;51.032;6.998;2023-02-04T14:33:31;22.02;;;9.88;;
35084;SDS011;21267;51.032;6.998;2023-02-04T14:35:58;26.48;;;9.82;;
35084;SDS011;21267;51.032;6.998;2023-02-04T14:38:25;22.65;;;8.90;;
35084;SDS011;21267;51.032;6.998;2023-02-04T14:40:57;18.40;;;9.18;;
35084;SDS011;21267;51.032;6.998;2023-02-04T14:43:23;20.98;;;9.85;;
35084;SDS011;21267;51.032;6.998;2023-02-04T14:45:51;30.13;;;10.03;;
35084;SDS011;21267;51.032;6.998;2023-02-04T14:48:18;18.93;;;8.67;;
35084;SDS011;21267;51.032;6.998;2023-02-04T14:50:44;24.33;;;8.57;;
35084;SDS011;21267;51.032;6.998;2023-02-04T14:53:12;25.58;;;10.75;;
35084;SDS011;21267;51.032;6.998;2023-02-04T14:55:39;19.67;;;9.38;;
35084;SDS011;21267;51.032;6.998;2023-02-04T14:58:05;21.48;;;9.32;;
35084;SDS011;21267;51.032;6.998;2023-02-04T15:00:32;25.90;;;8.43;;
35084;SDS011;21267;51.032;6.998;2023-02-04T15:02:59;24.40;;;9.85;;
35084;SDS011;21267;51.032;6.998;2023-02-04T15:05:26;25.75;;;9.25;;
35084;SDS011;21267;51.032;6.998;2023-02-04T15:07:53;20.23;;;9.18;;
35084;SDS011;21267;51.032;6.998;2023-02-04T15:10:19;19.70;;;8.07;;
35084;SDS011;21267;51.032;6.998;2023-02-04T15:12:48;20.90;;;8.35;;
35084;SDS011;21267;51.032;6.998;2023-02-04T15:15:14;21.08;;;7.65;;
35084;SDS011;21267;51.032;6.998;2023-02-04T15:17:43;25.60;;;9.15;;
35084;SDS011;21267;51.032;6.998;2023-02-04T15:20:10;27.13;;;8.00;;
35084;SDS011;21267;51.032;6.998;2023-02-04T15:25:11;26.30;;;9.07;;
35084;SDS011;21267;51.032;6.998;2023-02-04T15:27:38;21.15;;;9.38;;
35084;SDS011;21267;51.032;6.998;2023-02-04T15:30:05;25.63;;;8.43;;
35084;SDS011;21267;51.032;6.998;2023-02-04T15:32:32;26.80;;;8.95;;
35084;SDS011;21267;51.032;6.998;2023-02-04T15:34:59;19.63;;;7.78;;
35084;SDS011;21267;51.032;6.998;2023-02-04T15:37:26;22.80;;;7.30;;
35084;SDS011;21267;51.032;6.998;2023-02-04T15:39:52;22.38;;;7.95;;
35084;SDS011;21267;51.032;6.998;2023-02-04T15:42:22;13.90;;;6.72;;
35084;SDS011;21267;51.032;6.998;2023-02-04T15:44:48;23.50;;;7.25;;
35084;SDS011;21267;51.032;6.998;2023-02-04T15:47:15;26.67;;;8.38;;
35084;SDS011;21267;51.032;6.998;2023-02-04T15:49:42;22.83;;;8.20;;
35084;SDS011;21267;51.032;6.998;2023-02-04T15:52:08;22.17;;;7.53;;
35084;SDS011;21267;51.032;6.998;2023-02-04T15:54:48;21.42;;;8.23;;
35084;SDS011;21267;51.032;6.998;2023-02-04T15:57:14;22.63;;;8.10;;
35084;SDS011;21267;51.032;6.998;2023-02-04T15:59:43;21.20;;;7.82;;
35084;SDS011;21267;51.032;6.998;2023-02-04T16:02:13;24.00;;;7.85;;
35084;SDS011;21267;51.032;6.998;2023-02-04T16:04:42;19.92;;;7.88;;
35084;SDS011;21267;51.032;6.998;2023-02-04T16:07:10;23.60;;;7.85;;
35084;SDS011;21267;51.032;6.998;2023-02-04T16:09:39;25.52;;;7.80;;
35084;SDS011;21267;51.032;6.998;2023-02-04T16:12:06;21.98;;;8.05;;
35084;SDS011;21267;51.032;6.998;2023-02-04T16:14:33;19.70;;;8.60;;
35084;SDS011;21267;51.032;6.998;2023-02-04T16:17:00;29.60;;;8.20;;
35084;SDS011;21267;51.032;6.998;2023-02-04T16:19:27;25.08;;;8.63;;
35084;SDS011;21267;51.032;6.998;2023-02-04T16:21:54;25.20;;;9.27;;
35084;SDS011;21267;51.032;6.998;2023-02-04T16:24:21;29.58;;;10.05;;
35084;SDS011;21267;51.032;6.998;2023-02-04T16:26:47;24.63;;;8.50;;
35084;SDS011;21267;51.032;6.998;2023-02-04T16:29:14;29.83;;;8.88;;
35084;SDS011;21267;51.032;6.998;2023-02-04T16:31:41;25.60;;;8.43;;
35084;SDS011;21267;51.032;6.998;2023-02-04T16:34:08;27.33;;;8.00;;
35084;SDS011;21267;51.032;6.998;2023-02-04T16:36:34;18.77;;;7.53;;
35084;SDS011;21267;51.032;6.998;2023-02-04T16:39:01;27.48;;;8.80;;
35084;SDS011;21267;51.032;6.998;2023-02-04T16:41:28;29.25;;;8.60;;
35084;SDS011;21267;51.032;6.998;2023-02-04T16:43:55;30.65;;;9.80;;
35084;SDS011;21267;51.032;6.998;2023-02-04T16:46:22;32.60;;;11.80;;
35084;SDS011;21267;51.032;6.998;2023-02-04T16:48:49;39.53;;;14.07;;
35084;SDS011;21267;51.032;6.998;2023-02-04T16:51:15;28.77;;;9.70;;
35084;SDS011;21267;51.032;6.998;2023-02-04T16:53:43;29.50;;;8.93;;
35084;SDS011;21267;51.032;6.998;2023-02-04T16:56:09;30.55;;;9.63;;
35084;SDS011;21267;51.032;6.998;2023-02-04T16:58:36;40.22;;;17.38;;
35084;SDS011;21267;51.032;6.998;2023-02-04T17:01:05;46.65;;;20.15;;
35084;SDS011;21267;51.032;6.998;2023-02-04T17:03:32;37.13;;;15.48;;
35084;SDS011;21267;51.032;6.998;2023-02-04T17:05:59;29.77;;;11.32;;
35084;SDS011;21267;51.032;6.998;2023-02-04T17:08:26;29.30;;;10.67;;
35084;SDS011;21267;51.032;6.998;2023-02-04T17:10:54;32.70;;;9.52;;
35084;SDS011;21267;51.032;6.998;2023-02-04T17:13:39;29.38;;;9.13;;
35084;SDS011;21267;51.032;6.998;2023-02-04T17:16:06;36.58;;;9.57;;
35084;SDS011;21267;51.032;6.998;2023-02-04T17:18:33;25.90;;;9.35;;
35084;SDS011;21267;51.032;6.998;2023-02-04T17:21:00;38.25;;;11.13;;
35084;SDS011;21267;51.032;6.998;2023-02-04T17:23:27;25.20;;;9.45;;
35084;SDS011;21267;51.032;6.998;2023-02-04T17:25:54;28.70;;;9.48;;
35084;SDS011;21267;51.032;6.998;2023-02-04T17:28:21;32.08;;;9.35;;
35084;SDS011;21267;51.032;6.998;2023-02-04T17:33:18;30.33;;;9.50;;
35084;SDS011;21267;51.032;6.998;2023-02-04T17:35:45;30.10;;;11.48;;
35084;SDS011;21267;51.032;6.998;2023-02-04T17:38:11;27.73;;;9.40;;
35084;SDS011;21267;51.032;6.998;2023-02-04T17:40:43;29.70;;;9.98;;
35084;SDS011;21267;51.032;6.998;2023-02-04T17:43:09;32.72;;;10.25;;
35084;SDS011;21267;51.032;6.998;2023-02-04T17:45:36;27.45;;;10.35;;
35084;SDS011;21267;51.032;6.998;2023-02-04T17:48:03;32.20;;;10.07;;
35084;SDS011;21267;51.032;6.998;2023-02-04T17:50:30;26.23;;;10.00;;
35084;SDS011;21267;51.032;6.998;2023-02-04T17:53:21;22.48;;;10.20;;
35084;SDS011;21267;51.032;6.998;2023-02-04T17:55:48;32.27;;;13.33;;
35084;SDS011;21267;51.032;6.998;2023-02-04T17:58:16;32.92;;;10.40;;
35084;SDS011;21267;51.032;6.998;2023-02-04T18:00:47;29.20;;;11.00;;
35084;SDS011;21267;51.032;6.998;2023-02-04T18:05:45;34.30;;;10.60;;
35084;SDS011;21267;51.032;6.998;2023-02-04T18:08:34;29.10;;;11.60;;
35084;SDS011;21267;51.032;6.998;2023-02-04T18:11:07;36.63;;;12.63;;
35084;SDS011;21267;51.032;6.998;2023-02-04T18:13:40;31.13;;;11.20;;
35084;SDS011;21267;51.032;6.998;2023-02-04T18:21:43;36.15;;;12.40;;
35084;SDS011;21267;51.032;6.998;2023-02-04T18:24:15;29.23;;;12.82;;
35084;SDS011;21267;51.032;6.998;2023-02-04T18:26:54;33.78;;;15.80;;
35084;SDS011;21267;51.032;6.998;2023-02-04T18:34:37;36.65;;;14.35;;
35084;SDS011;21267;51.032;6.998;2023-02-04T18:39:55;32.42;;;13.65;;
35084;SDS011;21267;51.032;6.998;2023-02-04T18:42:27;33.60;;;14.30;;
35084;SDS011;21267;51.032;6.998;2023-02-04T18:44:53;31.88;;;14.45;;
35084;SDS011;21267;51.032;6.998;2023-02-04T18:47:29;31.05;;;15.45;;
35084;SDS011;21267;51.032;6.998;2023-02-04T18:50:05;41.63;;;17.13;;
35084;SDS011;21267;51.032;6.998;2023-02-04T18:52:47;33.50;;;14.00;;
35084;SDS011;21267;51.032;6.998;2023-02-04T18:58:41;32.17;;;14.18;;
35084;SDS011;21267;51.032;6.998;2023-02-04T19:06:22;34.42;;;14.52;;
35084;SDS011;21267;51.032;6.998;2023-02-04T19:08:52;36.60;;;14.90;;
35084;SDS011;21267;51.032;6.998;2023-02-04T19:14:00;30.73;;;13.90;;
35084;SDS011;21267;51.032;6.998;2023-02-04T19:16:32;32.10;;;15.65;;
35084;SDS011;21267;51.032;6.998;2023-02-04T19:21:55;43.75;;;16.80;;
35084;SDS011;21267;51.032;6.998;2023-02-04T19:24:23;33.88;;;16.63;;
35084;SDS011;21267;51.032;6.998;2023-02-04T19:26:59;33.05;;;14.98;;
35084;SDS011;21267;51.032;6.998;2023-02-04T19:29:35;32.17;;;14.52;;
35084;SDS011;21267;51.032;6.998;2023-02-04T19:32:17;33.03;;;15.85;;
35084;SDS011;21267;51.032;6.998;2023-02-04T19:34:50;37.00;;;14.77;;
35084;SDS011;21267;51.032;6.998;2023-02-04T19:37:22;35.47;;;15.48;;
35084;SDS011;21267;51.032;6.998;2023-02-04T19:39:52;34.05;;;17.08;;
35084;SDS011;21267;51.032;6.998;2023-02-04T19:45:09;31.75;;;16.30;;
35084;SDS011;21267;51.032;6.998;2023-02-04T19:47:43;35.08;;;16.88;;
35084;SDS011;21267;51.032;6.998;2023-02-04T19:52:55;32.92;;;17.85;;
35084;SDS011;21267;51.032;6.998;2023-02-04T19:55:29;35.53;;;17.75;;
35084;SDS011;21267;51.032;6.998;2023-02-04T20:00:53;42.88;;;21.13;;
35084;SDS011;21267;51.032;6.998;2023-02-04T20:08:56;40.80;;;19.73;;
35084;SDS011;21267;51.032;6.998;2023-02-04T20:16:49;38.55;;;22.88;;
35084;SDS011;21267;51.032;6.998;2023-02-04T20:19:24;38.95;;;20.73;;
35084;SDS011;21267;51.032;6.998;2023-02-04T20:24:53;31.95;;;18.92;;
35084;SDS011;21267;51.032;6.998;2023-02-04T20:27:22;44.70;;;20.80;;
35084;SDS011;21267;51.032;6.998;2023-02-04T20:30:36;37.67;;;20.77;;
35084;SDS011;21267;51.032;6.998;2023-02-04T20:32:55;46.67;;;23.03;;
35084;SDS011;21267;51.032;6.998;2023-02-04T20:37:58;37.08;;;20.55;;
35084;SDS011;21267;51.032;6.998;2023-02-04T20:40:28;35.20;;;19.73;;
35084;SDS011;21267;51.032;6.998;2023-02-04T20:43:01;39.33;;;20.73;;
35084;SDS011;21267;51.032;6.998;2023-02-04T20:48:35;44.15;;;22.98;;
35084;SDS011;21267;51.032;6.998;2023-02-04T20:51:03;43.00;;;22.00;;
35084;SDS011;21267;51.032;6.998;2023-02-04T20:53:40;38.42;;;21.83;;
35084;SDS011;21267;51.032;6.998;2023-02-04T20:56:26;37.08;;;20.85;;
35084;SDS011;21267;51.032;6.998;2023-02-04T21:01:59;35.50;;;20.95;;
35084;SDS011;21267;51.032;6.998;2023-02-04T21:04:34;41.45;;;22.17;;
35084;SDS011;21267;51.032;6.998;2023-02-04T21:07:22;46.58;;;21.73;;
35084;SDS011;21267;51.032;6.998;2023-02-04T21:09:48;37.85;;;20.73;;
35084;SDS011;21267;51.032;6.998;2023-02-04T21:12:16;40.47;;;20.52;;
35084;SDS011;21267;51.032;6.998;2023-02-04T21:14:43;41.40;;;20.23;;
35084;SDS011;21267;51.032;6.998;2023-02-04T21:17:10;37.40;;;19.38;;
35084;SDS011;21267;51.032;6.998;2023-02-04T21:19:37;37.72;;;19.60;;
35084;SDS011;21267;51.032;6.998;2023-02-04T21:22:03;34.63;;;19.98;;
35084;SDS011;21267;51.032;6.998;2023-02-04T21:24:30;36.97;;;19.02;;
35084;SDS011;21267;51.032;6.998;2023-02-04T21:26:57;37.25;;;20.10;;
35084;SDS011;21267;51.032;6.998;2023-02-04T21:29:24;41.58;;;21.38;;
35084;SDS011;21267;51.032;6.998;2023-02-04T21:31:51;45.63;;;25.50;;
35084;SDS011;21267;51.032;6.998;2023-02-04T21:34:19;46.33;;;25.23;;
35084;SDS011;21267;51.032;6.998;2023-02-04T21:36:46;36.17;;;19.55;;
35084;SDS011;21267;51.032;6.998;2023-02-04T21:39:14;36.28;;;19.40;;
35084;SDS011;21267;51.032;6.998;2023-02-04T21:41:40;36.80;;;17.95;;
35084;SDS011;21267;51.032;6.998;2023-02-04T21:44:09;45.85;;;18.70;;
35084;SDS011;21267;51.032;6.998;2023-02-04T21:46:36;74.35;;;41.45;;
35084;SDS011;21267;51.032;6.998;2023-02-04T21:49:02;43.35;;;20.00;;
35084;SDS011;21267;51.032;6.998;2023-02-04T21:51:30;37.42;;;19.52;;
35084;SDS011;21267;51.032;6.998;2023-02-04T21:53:57;35.37;;;17.27;;
35084;SDS011;21267;51.032;6.998;2023-02-04T21:56:25;36.90;;;16.95;;
35084;SDS011;21267;51.032;6.998;2023-02-04T21:58:51;28.95;;;17.23;;
35084;SDS011;21267;51.032;6.998;2023-02-04T22:01:21;32.25;;;16.70;;
35084;SDS011;21267;51.032;6.998;2023-02-04T22:03:49;38.22;;;18.15;;
35084;SDS011;21267;51.032;6.998;2023-02-04T22:06:16;37.85;;;18.48;;
35084;SDS011;21267;51.032;6.998;2023-02-04T22:08:43;35.50;;;19.13;;
35084;SDS011;21267;51.032;6.998;2023-02-04T22:11:10;36.55;;;17.85;;
35084;SDS011;21267;51.032;6.998;2023-02-04T22:13:37;35.95;;;18.00;;
35084;SDS011;21267;51.032;6.998;2023-02-04T22:16:22;36.83;;;17.85;;
35084;SDS011;21267;51.032;6.998;2023-02-04T22:18:51;36.00;;;17.98;;
35084;SDS011;21267;51.032;6.998;2023-02-04T22:21:18;37.00;;;17.42;;
35084;SDS011;21267;51.032;6.998;2023-02-04T22:23:59;36.47;;;18.27;;
35084;SDS011;21267;51.032;6.998;2023-02-04T22:26:26;37.15;;;18.45;;
35084;SDS011;21267;51.032;6.998;2023-02-04T22:28:53;33.13;;;18.37;;
35084;SDS011;21267;51.032;6.998;2023-02-04T22:31:21;37.30;;;18.95;;
35084;SDS011;21267;51.032;6.998;2023-02-04T22:36:20;34.50;;;17.85;;
35084;SDS011;21267;51.032;6.998;2023-02-04T22:38:47;46.17;;;26.58;;
35084;SDS011;21267;51.032;6.998;2023-02-04T22:41:16;41.42;;;21.75;;
35084;SDS011;21267;51.032;6.998;2023-02-04T22:43:43;59.72;;;31.27;;
35084;SDS011;21267;51.032;6.998;2023-02-04T22:46:12;33.42;;;18.67;;
35084;SDS011;21267;51.032;6.998;2023-02-04T22:48:38;39.72;;;22.73;;
35084;SDS011;21267;51.032;6.998;2023-02-04T22:51:05;44.50;;;23.25;;
35084;SDS011;21267;51.032;6.998;2023-02-04T22:53:32;39.70;;;21.48;;
35084;SDS011;21267;51.032;6.998;2023-02-04T22:55:59;30.63;;;17.63;;
35084;SDS011;21267;51.032;6.998;2023-02-04T22:58:27;35.88;;;19.77;;
35084;SDS011;21267;51.032;6.998;2023-02-04T23:00:53;44.40;;;22.27;;
35084;SDS011;21267;51.032;6.998;2023-02-04T23:03:20;32.15;;;18.13;;
35084;SDS011;21267;51.032;6.998;2023-02-04T23:05:47;39.65;;;21.75;;
35084;SDS011;21267;51.032;6.998;2023-02-04T23:08:16;40.17;;;20.63;;
35084;SDS011;21267;51.032;6.998;2023-02-04T23:10:43;26.90;;;14.37;;
35084;SDS011;21267;51.032;6.998;2023-02-04T23:15:38;33.17;;;18.67;;
35084;SDS011;21267;51.032;6.998;2023-02-04T23:18:04;39.05;;;18.52;;
35084;SDS011;21267;51.032;6.998;2023-02-04T23:20:31;35.50;;;17.92;;
35084;SDS011;21267;51.032;6.998;2023-02-04T23:22:59;33.50;;;17.75;;
35084;SDS011;21267;51.032;6.998;2023-02-04T23:25:26;36.72;;;17.35;;
35084;SDS011;21267;51.032;6.998;2023-02-04T23:27:55;42.60;;;17.70;;
35084;SDS011;21267;51.032;6.998;2023-02-04T23:30:22;40.25;;;19.27;;
35084;SDS011;21267;51.032;6.998;2023-02-04T23:32:49;48.47;;;20.80;;
35084;SDS011;21267;51.032;6.998;2023-02-04T23:35:16;34.28;;;18.48;;
35084;SDS011;21267;51.032;6.998;2023-02-04T23:37:43;30.55;;;17.92;;
35084;SDS011;21267;51.032;6.998;2023-02-04T23:40:10;35.55;;;18.55;;
35084;SDS011;21267;51.032;6.998;2023-02-04T23:42:37;35.60;;;17.98;;
35084;SDS011;21267;51.032;6.998;2023-02-04T23:45:04;42.53;;;19.07;;
35084;SDS011;21267;51.032;6.998;2023-02-04T23:47:31;34.43;;;18.07;;
35084;SDS011;21267;51.032;6.998;2023-02-04T23:49:58;33.97;;;19.70;;
35084;SDS011;21267;51.032;6.998;2023-02-04T23:52:25;34.35;;;19.02;;
35084;SDS011;21267;51.032;6.998;2023-02-04T23:54:51;39.15;;;21.20;;
35084;SDS011;21267;51.032;6.998;2023-02-04T23:57:18;37.97;;;21.92;;
35084;SDS011;21267;51.032;6.998;2023-02-04T23:59:48;39.13;;;21.75;;
